sensor_id;sensor_type;location;lat;lon;timestamp;P1;durP1;ratioP1;P2;durP2;ratioP2
19384;SDS011;9828;54.122;17.974;2023-12-20T00:03:13;0.97;;;0.90;;
19384;SDS011;9828;54.122;17.974;2023-12-20T00:08:34;1.57;;;1.27;;
19384;SDS011;9828;54.122;17.974;2023-12-20T00:13:55;0.80;;;0.80;;
19384;SDS011;9828;54.122;17.974;2023-12-20T00:19:16;0.67;;;0.60;;
19384;SDS011;9828;54.122;17.974;2023-12-20T00:24:37;0.70;;;0.70;;
19384;SDS011;9828;54.122;17.974;2023-12-20T00:29:58;0.50;;;0.50;;
19384;SDS011;9828;54.122;17.974;2023-12-20T00:35:20;1.13;;;0.50;;
19384;SDS011;9828;54.122;17.974;2023-12-20T00:40:41;1.13;;;0.70;;
19384;SDS011;9828;54.122;17.974;2023-12-20T00:46:03;2.40;;;0.90;;
19384;SDS011;9828;54.122;17.974;2023-12-20T00:51:24;2.80;;;1.07;;
19384;SDS011;9828;54.122;17.974;2023-12-20T00:56:45;1.77;;;0.90;;
19384;SDS011;9828;54.122;17.974;2023-12-20T01:02:07;1.53;;;1.03;;
19384;SDS011;9828;54.122;17.974;2023-12-20T01:07:29;1.27;;;0.90;;
19384;SDS011;9828;54.122;17.974;2023-12-20T01:12:50;7.40;;;1.10;;
19384;SDS011;9828;54.122;17.974;2023-12-20T01:18:11;1.33;;;0.50;;
19384;SDS011;9828;54.122;17.974;2023-12-20T01:23:33;0.70;;;0.37;;
19384;SDS011;9828;54.122;17.974;2023-12-20T01:28:54;2.83;;;0.63;;
19384;SDS011;9828;54.122;17.974;2023-12-20T01:34:16;0.70;;;0.60;;
19384;SDS011;9828;54.122;17.974;2023-12-20T01:39:38;3.27;;;0.67;;
19384;SDS011;9828;54.122;17.974;2023-12-20T01:44:59;1.50;;;0.50;;
19384;SDS011;9828;54.122;17.974;2023-12-20T01:50:20;1.23;;;0.77;;
19384;SDS011;9828;54.122;17.974;2023-12-20T01:55:42;3.50;;;1.43;;
19384;SDS011;9828;54.122;17.974;2023-12-20T02:01:04;2.63;;;1.23;;
19384;SDS011;9828;54.122;17.974;2023-12-20T02:06:25;4.37;;;1.50;;
19384;SDS011;9828;54.122;17.974;2023-12-20T02:11:51;1.07;;;1.07;;
19384;SDS011;9828;54.122;17.974;2023-12-20T02:17:13;2.27;;;1.20;;
19384;SDS011;9828;54.122;17.974;2023-12-20T02:22:34;4.73;;;1.40;;
19384;SDS011;9828;54.122;17.974;2023-12-20T02:27:55;2.27;;;1.20;;
19384;SDS011;9828;54.122;17.974;2023-12-20T02:33:17;4.13;;;1.37;;
19384;SDS011;9828;54.122;17.974;2023-12-20T02:38:38;5.00;;;1.13;;
19384;SDS011;9828;54.122;17.974;2023-12-20T02:44:01;6.60;;;1.27;;
19384;SDS011;9828;54.122;17.974;2023-12-20T02:49:22;8.83;;;1.70;;
19384;SDS011;9828;54.122;17.974;2023-12-20T02:54:44;4.93;;;1.33;;
19384;SDS011;9828;54.122;17.974;2023-12-20T03:00:05;6.87;;;1.40;;
19384;SDS011;9828;54.122;17.974;2023-12-20T03:05:28;5.63;;;1.20;;
19384;SDS011;9828;54.122;17.974;2023-12-20T03:10:49;4.40;;;1.37;;
19384;SDS011;9828;54.122;17.974;2023-12-20T03:16:11;9.37;;;1.87;;
19384;SDS011;9828;54.122;17.974;2023-12-20T03:21:33;12.27;;;2.30;;
19384;SDS011;9828;54.122;17.974;2023-12-20T03:26:54;4.37;;;1.20;;
19384;SDS011;9828;54.122;17.974;2023-12-20T03:32:16;4.80;;;1.53;;
19384;SDS011;9828;54.122;17.974;2023-12-20T03:37:37;5.33;;;1.30;;
19384;SDS011;9828;54.122;17.974;2023-12-20T03:42:58;8.13;;;1.47;;
19384;SDS011;9828;54.122;17.974;2023-12-20T03:48:20;5.83;;;1.20;;
19384;SDS011;9828;54.122;17.974;2023-12-20T03:53:41;5.30;;;1.13;;
19384;SDS011;9828;54.122;17.974;2023-12-20T03:59:02;5.33;;;1.20;;
19384;SDS011;9828;54.122;17.974;2023-12-20T04:04:24;8.90;;;1.30;;
19384;SDS011;9828;54.122;17.974;2023-12-20T04:09:45;7.23;;;1.67;;
19384;SDS011;9828;54.122;17.974;2023-12-20T04:15:07;5.87;;;1.20;;
19384;SDS011;9828;54.122;17.974;2023-12-20T04:20:30;4.07;;;1.10;;
19384;SDS011;9828;54.122;17.974;2023-12-20T04:25:51;5.23;;;1.40;;
19384;SDS011;9828;54.122;17.974;2023-12-20T04:31:13;3.30;;;1.20;;
19384;SDS011;9828;54.122;17.974;2023-12-20T04:36:34;7.37;;;2.10;;
19384;SDS011;9828;54.122;17.974;2023-12-20T04:41:56;10.20;;;6.17;;
19384;SDS011;9828;54.122;17.974;2023-12-20T04:47:17;15.97;;;6.83;;
19384;SDS011;9828;54.122;17.974;2023-12-20T04:52:38;11.90;;;5.30;;
19384;SDS011;9828;54.122;17.974;2023-12-20T04:58:00;10.03;;;4.37;;
19384;SDS011;9828;54.122;17.974;2023-12-20T05:03:21;8.53;;;4.13;;
19384;SDS011;9828;54.122;17.974;2023-12-20T05:08:43;5.50;;;2.70;;
19384;SDS011;9828;54.122;17.974;2023-12-20T05:14:04;4.40;;;1.53;;
19384;SDS011;9828;54.122;17.974;2023-12-20T05:19:25;5.83;;;1.50;;
19384;SDS011;9828;54.122;17.974;2023-12-20T05:24:47;5.77;;;1.50;;
19384;SDS011;9828;54.122;17.974;2023-12-20T05:30:08;6.03;;;2.00;;
19384;SDS011;9828;54.122;17.974;2023-12-20T05:35:30;9.63;;;2.30;;
19384;SDS011;9828;54.122;17.974;2023-12-20T05:40:51;7.33;;;2.30;;
19384;SDS011;9828;54.122;17.974;2023-12-20T05:46:12;8.07;;;2.00;;
19384;SDS011;9828;54.122;17.974;2023-12-20T05:51:34;6.43;;;1.40;;
19384;SDS011;9828;54.122;17.974;2023-12-20T05:56:55;4.70;;;2.23;;
19384;SDS011;9828;54.122;17.974;2023-12-20T06:02:17;6.60;;;2.23;;
19384;SDS011;9828;54.122;17.974;2023-12-20T06:07:38;10.37;;;2.30;;
19384;SDS011;9828;54.122;17.974;2023-12-20T06:12:59;6.70;;;2.03;;
19384;SDS011;9828;54.122;17.974;2023-12-20T06:18:21;3.60;;;1.50;;
19384;SDS011;9828;54.122;17.974;2023-12-20T06:23:42;10.97;;;2.63;;
19384;SDS011;9828;54.122;17.974;2023-12-20T06:29:03;6.07;;;1.93;;
19384;SDS011;9828;54.122;17.974;2023-12-20T06:34:25;10.23;;;3.33;;
19384;SDS011;9828;54.122;17.974;2023-12-20T06:39:46;7.33;;;2.67;;
19384;SDS011;9828;54.122;17.974;2023-12-20T06:45:07;4.50;;;1.73;;
19384;SDS011;9828;54.122;17.974;2023-12-20T06:50:29;5.87;;;1.80;;
19384;SDS011;9828;54.122;17.974;2023-12-20T06:55:50;8.47;;;2.07;;
19384;SDS011;9828;54.122;17.974;2023-12-20T07:01:12;5.87;;;2.13;;
19384;SDS011;9828;54.122;17.974;2023-12-20T07:06:34;10.47;;;2.53;;
19384;SDS011;9828;54.122;17.974;2023-12-20T07:11:56;13.73;;;4.53;;
19384;SDS011;9828;54.122;17.974;2023-12-20T07:17:17;11.63;;;3.53;;
19384;SDS011;9828;54.122;17.974;2023-12-20T07:22:38;10.97;;;4.83;;
19384;SDS011;9828;54.122;17.974;2023-12-20T07:27:59;25.33;;;11.10;;
19384;SDS011;9828;54.122;17.974;2023-12-20T07:33:21;16.40;;;8.57;;
19384;SDS011;9828;54.122;17.974;2023-12-20T07:38:42;21.03;;;10.17;;
19384;SDS011;9828;54.122;17.974;2023-12-20T07:44:04;42.93;;;24.77;;
19384;SDS011;9828;54.122;17.974;2023-12-20T07:49:27;44.47;;;25.50;;
19384;SDS011;9828;54.122;17.974;2023-12-20T07:54:48;44.87;;;22.87;;
19384;SDS011;9828;54.122;17.974;2023-12-20T08:00:09;41.10;;;20.17;;
19384;SDS011;9828;54.122;17.974;2023-12-20T08:05:31;29.20;;;15.37;;
19384;SDS011;9828;54.122;17.974;2023-12-20T08:10:52;31.80;;;16.50;;
19384;SDS011;9828;54.122;17.974;2023-12-20T08:16:14;25.97;;;14.50;;
19384;SDS011;9828;54.122;17.974;2023-12-20T08:21:38;31.30;;;9.57;;
19384;SDS011;9828;54.122;17.974;2023-12-20T08:26:59;13.53;;;5.63;;
19384;SDS011;9828;54.122;17.974;2023-12-20T08:32:20;15.87;;;5.37;;
19384;SDS011;9828;54.122;17.974;2023-12-20T08:37:42;19.37;;;6.97;;
19384;SDS011;9828;54.122;17.974;2023-12-20T08:43:04;17.90;;;6.73;;
19384;SDS011;9828;54.122;17.974;2023-12-20T08:48:25;12.00;;;3.90;;
19384;SDS011;9828;54.122;17.974;2023-12-20T08:53:46;12.23;;;4.90;;
19384;SDS011;9828;54.122;17.974;2023-12-20T08:59:08;14.30;;;4.67;;
19384;SDS011;9828;54.122;17.974;2023-12-20T09:04:29;19.83;;;8.00;;
19384;SDS011;9828;54.122;17.974;2023-12-20T09:09:51;15.23;;;5.83;;
19384;SDS011;9828;54.122;17.974;2023-12-20T09:15:13;12.10;;;5.57;;
19384;SDS011;9828;54.122;17.974;2023-12-20T09:20:35;13.10;;;4.37;;
19384;SDS011;9828;54.122;17.974;2023-12-20T09:25:57;11.70;;;3.87;;
19384;SDS011;9828;54.122;17.974;2023-12-20T09:31:18;15.37;;;4.30;;
19384;SDS011;9828;54.122;17.974;2023-12-20T09:36:39;12.77;;;4.63;;
19384;SDS011;9828;54.122;17.974;2023-12-20T09:42:06;8.77;;;3.60;;
19384;SDS011;9828;54.122;17.974;2023-12-20T09:47:28;14.40;;;5.83;;
19384;SDS011;9828;54.122;17.974;2023-12-20T09:52:50;14.37;;;5.43;;
19384;SDS011;9828;54.122;17.974;2023-12-20T09:58:13;19.13;;;5.07;;
19384;SDS011;9828;54.122;17.974;2023-12-20T10:03:34;16.10;;;7.53;;
19384;SDS011;9828;54.122;17.974;2023-12-20T10:08:57;17.47;;;7.70;;
19384;SDS011;9828;54.122;17.974;2023-12-20T10:14:18;15.57;;;7.30;;
19384;SDS011;9828;54.122;17.974;2023-12-20T10:19:40;25.03;;;8.10;;
19384;SDS011;9828;54.122;17.974;2023-12-20T10:25:03;21.03;;;9.37;;
19384;SDS011;9828;54.122;17.974;2023-12-20T10:30:25;20.93;;;8.17;;
19384;SDS011;9828;54.122;17.974;2023-12-20T10:35:48;40.10;;;17.27;;
19384;SDS011;9828;54.122;17.974;2023-12-20T10:41:09;17.43;;;6.47;;
19384;SDS011;9828;54.122;17.974;2023-12-20T10:46:32;13.30;;;6.10;;
19384;SDS011;9828;54.122;17.974;2023-12-20T10:51:54;21.33;;;6.30;;
19384;SDS011;9828;54.122;17.974;2023-12-20T10:57:18;15.10;;;6.87;;
19384;SDS011;9828;54.122;17.974;2023-12-20T11:02:40;20.10;;;5.77;;
19384;SDS011;9828;54.122;17.974;2023-12-20T11:08:12;15.93;;;6.03;;
19384;SDS011;9828;54.122;17.974;2023-12-20T11:13:59;25.00;;;8.00;;
19384;SDS011;9828;54.122;17.974;2023-12-20T11:19:25;12.37;;;4.97;;
19384;SDS011;9828;54.122;17.974;2023-12-20T11:24:47;8.03;;;4.40;;
19384;SDS011;9828;54.122;17.974;2023-12-20T11:30:11;11.63;;;4.47;;
19384;SDS011;9828;54.122;17.974;2023-12-20T11:35:34;9.83;;;4.10;;
19384;SDS011;9828;54.122;17.974;2023-12-20T11:40:57;17.17;;;7.40;;
19384;SDS011;9828;54.122;17.974;2023-12-20T11:46:24;12.67;;;3.70;;
19384;SDS011;9828;54.122;17.974;2023-12-20T11:51:46;6.40;;;3.27;;
19384;SDS011;9828;54.122;17.974;2023-12-20T11:57:07;11.37;;;3.80;;
19384;SDS011;9828;54.122;17.974;2023-12-20T12:02:29;7.77;;;4.33;;
19384;SDS011;9828;54.122;17.974;2023-12-20T12:07:51;6.83;;;3.27;;
19384;SDS011;9828;54.122;17.974;2023-12-20T12:13:13;7.77;;;3.00;;
19384;SDS011;9828;54.122;17.974;2023-12-20T12:18:35;8.23;;;3.60;;
19384;SDS011;9828;54.122;17.974;2023-12-20T12:24:06;6.93;;;3.10;;
19384;SDS011;9828;54.122;17.974;2023-12-20T12:29:28;7.10;;;3.50;;
19384;SDS011;9828;54.122;17.974;2023-12-20T12:34:49;10.27;;;4.20;;
19384;SDS011;9828;54.122;17.974;2023-12-20T12:40:11;10.63;;;3.90;;
19384;SDS011;9828;54.122;17.974;2023-12-20T12:45:34;6.57;;;3.27;;
19384;SDS011;9828;54.122;17.974;2023-12-20T12:50:55;13.63;;;6.27;;
19384;SDS011;9828;54.122;17.974;2023-12-20T12:56:19;22.27;;;12.70;;
19384;SDS011;9828;54.122;17.974;2023-12-20T13:01:42;18.87;;;7.57;;
19384;SDS011;9828;54.122;17.974;2023-12-20T13:07:04;10.40;;;4.67;;
19384;SDS011;9828;54.122;17.974;2023-12-20T13:12:25;6.77;;;3.53;;
19384;SDS011;9828;54.122;17.974;2023-12-20T13:17:47;18.23;;;6.27;;
19384;SDS011;9828;54.122;17.974;2023-12-20T13:23:08;20.90;;;7.90;;
19384;SDS011;9828;54.122;17.974;2023-12-20T13:28:30;16.03;;;7.07;;
19384;SDS011;9828;54.122;17.974;2023-12-20T13:33:51;7.47;;;4.37;;
19384;SDS011;9828;54.122;17.974;2023-12-20T13:39:15;16.10;;;6.07;;
19384;SDS011;9828;54.122;17.974;2023-12-20T13:44:37;16.10;;;7.30;;
19384;SDS011;9828;54.122;17.974;2023-12-20T13:49:58;13.57;;;6.60;;
19384;SDS011;9828;54.122;17.974;2023-12-20T13:55:20;15.03;;;6.43;;
19384;SDS011;9828;54.122;17.974;2023-12-20T14:00:45;13.33;;;6.20;;
19384;SDS011;9828;54.122;17.974;2023-12-20T14:06:06;13.93;;;7.90;;
19384;SDS011;9828;54.122;17.974;2023-12-20T14:11:28;17.03;;;7.57;;
19384;SDS011;9828;54.122;17.974;2023-12-20T14:16:49;10.97;;;5.43;;
19384;SDS011;9828;54.122;17.974;2023-12-20T14:22:11;9.43;;;4.40;;
19384;SDS011;9828;54.122;17.974;2023-12-20T14:27:37;19.97;;;6.57;;
19384;SDS011;9828;54.122;17.974;2023-12-20T14:32:59;13.67;;;4.57;;
19384;SDS011;9828;54.122;17.974;2023-12-20T14:38:22;11.40;;;5.23;;
19384;SDS011;9828;54.122;17.974;2023-12-20T14:43:43;14.70;;;6.70;;
19384;SDS011;9828;54.122;17.974;2023-12-20T14:49:05;12.40;;;5.33;;
19384;SDS011;9828;54.122;17.974;2023-12-20T14:54:26;9.30;;;3.83;;
19384;SDS011;9828;54.122;17.974;2023-12-20T14:59:48;9.30;;;4.67;;
19384;SDS011;9828;54.122;17.974;2023-12-20T15:05:09;12.77;;;4.83;;
19384;SDS011;9828;54.122;17.974;2023-12-20T15:10:31;18.90;;;7.10;;
19384;SDS011;9828;54.122;17.974;2023-12-20T15:15:52;18.47;;;7.07;;
19384;SDS011;9828;54.122;17.974;2023-12-20T15:21:14;13.23;;;6.07;;
19384;SDS011;9828;54.122;17.974;2023-12-20T15:26:37;12.60;;;4.43;;
19384;SDS011;9828;54.122;17.974;2023-12-20T15:31:59;10.53;;;3.60;;
19384;SDS011;9828;54.122;17.974;2023-12-20T15:37:21;10.50;;;4.10;;
19384;SDS011;9828;54.122;17.974;2023-12-20T15:42:42;6.30;;;3.10;;
19384;SDS011;9828;54.122;17.974;2023-12-20T15:48:04;4.43;;;2.60;;
19384;SDS011;9828;54.122;17.974;2023-12-20T15:53:25;11.13;;;3.63;;
19384;SDS011;9828;54.122;17.974;2023-12-20T15:58:47;5.83;;;3.13;;
19384;SDS011;9828;54.122;17.974;2023-12-20T16:04:12;3.80;;;1.80;;
19384;SDS011;9828;54.122;17.974;2023-12-20T16:09:34;2.58;;;1.65;;
19384;SDS011;9828;54.122;17.974;2023-12-20T16:14:55;1.80;;;1.00;;
19384;SDS011;9828;54.122;17.974;2023-12-20T16:20:16;4.53;;;2.23;;
19384;SDS011;9828;54.122;17.974;2023-12-20T16:25:37;2.63;;;1.83;;
19384;SDS011;9828;54.122;17.974;2023-12-20T16:31:00;8.30;;;1.53;;
19384;SDS011;9828;54.122;17.974;2023-12-20T16:36:21;4.07;;;2.30;;
19384;SDS011;9828;54.122;17.974;2023-12-20T16:41:42;3.67;;;1.53;;
19384;SDS011;9828;54.122;17.974;2023-12-20T16:47:04;3.33;;;1.90;;
19384;SDS011;9828;54.122;17.974;2023-12-20T16:52:25;3.10;;;1.60;;
19384;SDS011;9828;54.122;17.974;2023-12-20T16:57:46;3.57;;;1.50;;
19384;SDS011;9828;54.122;17.974;2023-12-20T17:03:08;3.27;;;1.60;;
19384;SDS011;9828;54.122;17.974;2023-12-20T17:08:29;9.90;;;2.43;;
19384;SDS011;9828;54.122;17.974;2023-12-20T17:13:50;6.27;;;2.00;;
19384;SDS011;9828;54.122;17.974;2023-12-20T17:19:13;4.43;;;1.80;;
19384;SDS011;9828;54.122;17.974;2023-12-20T17:24:34;2.97;;;1.17;;
19384;SDS011;9828;54.122;17.974;2023-12-20T17:29:56;8.57;;;1.77;;
19384;SDS011;9828;54.122;17.974;2023-12-20T17:35:17;7.90;;;1.93;;
19384;SDS011;9828;54.122;17.974;2023-12-20T17:40:40;6.33;;;1.83;;
19384;SDS011;9828;54.122;17.974;2023-12-20T17:46:02;5.83;;;1.33;;
19384;SDS011;9828;54.122;17.974;2023-12-20T17:51:23;3.80;;;1.53;;
19384;SDS011;9828;54.122;17.974;2023-12-20T17:56:44;6.83;;;1.63;;
19384;SDS011;9828;54.122;17.974;2023-12-20T18:02:07;9.13;;;2.50;;
19384;SDS011;9828;54.122;17.974;2023-12-20T18:07:28;7.97;;;2.30;;
19384;SDS011;9828;54.122;17.974;2023-12-20T18:12:50;4.47;;;2.00;;
19384;SDS011;9828;54.122;17.974;2023-12-20T18:18:11;5.63;;;1.87;;
19384;SDS011;9828;54.122;17.974;2023-12-20T18:23:32;7.17;;;1.80;;
19384;SDS011;9828;54.122;17.974;2023-12-20T18:28:53;4.80;;;2.20;;
19384;SDS011;9828;54.122;17.974;2023-12-20T18:34:15;5.90;;;2.63;;
19384;SDS011;9828;54.122;17.974;2023-12-20T18:39:37;4.30;;;2.00;;
19384;SDS011;9828;54.122;17.974;2023-12-20T18:44:58;6.03;;;1.60;;
19384;SDS011;9828;54.122;17.974;2023-12-20T18:50:20;5.60;;;2.13;;
19384;SDS011;9828;54.122;17.974;2023-12-20T18:55:41;6.13;;;2.20;;
19384;SDS011;9828;54.122;17.974;2023-12-20T19:01:02;4.43;;;1.47;;
19384;SDS011;9828;54.122;17.974;2023-12-20T19:06:24;5.17;;;2.33;;
19384;SDS011;9828;54.122;17.974;2023-12-20T19:11:45;3.83;;;2.10;;
19384;SDS011;9828;54.122;17.974;2023-12-20T19:17:06;1.50;;;1.17;;
19384;SDS011;9828;54.122;17.974;2023-12-20T19:22:28;6.43;;;1.30;;
19384;SDS011;9828;54.122;17.974;2023-12-20T19:27:52;4.07;;;2.00;;
19384;SDS011;9828;54.122;17.974;2023-12-20T19:33:13;3.40;;;1.70;;
19384;SDS011;9828;54.122;17.974;2023-12-20T19:38:35;5.03;;;2.00;;
19384;SDS011;9828;54.122;17.974;2023-12-20T19:43:57;3.83;;;2.00;;
19384;SDS011;9828;54.122;17.974;2023-12-20T19:49:18;2.67;;;1.87;;
19384;SDS011;9828;54.122;17.974;2023-12-20T19:54:40;4.33;;;2.03;;
19384;SDS011;9828;54.122;17.974;2023-12-20T20:00:02;4.83;;;2.53;;
19384;SDS011;9828;54.122;17.974;2023-12-20T20:05:31;6.07;;;2.97;;
19384;SDS011;9828;54.122;17.974;2023-12-20T20:10:53;7.47;;;4.50;;
19384;SDS011;9828;54.122;17.974;2023-12-20T20:16:14;4.63;;;2.70;;
19384;SDS011;9828;54.122;17.974;2023-12-20T20:21:35;3.43;;;1.80;;
19384;SDS011;9828;54.122;17.974;2023-12-20T20:26:57;4.93;;;2.30;;
19384;SDS011;9828;54.122;17.974;2023-12-20T20:32:18;3.53;;;1.43;;
19384;SDS011;9828;54.122;17.974;2023-12-20T20:37:40;4.90;;;1.90;;
19384;SDS011;9828;54.122;17.974;2023-12-20T20:43:01;2.77;;;1.67;;
19384;SDS011;9828;54.122;17.974;2023-12-20T20:48:23;2.80;;;1.53;;
19384;SDS011;9828;54.122;17.974;2023-12-20T20:53:46;11.40;;;4.00;;
19384;SDS011;9828;54.122;17.974;2023-12-20T20:59:07;1.90;;;1.33;;
19384;SDS011;9828;54.122;17.974;2023-12-20T21:04:29;8.50;;;2.30;;
19384;SDS011;9828;54.122;17.974;2023-12-20T21:09:50;6.23;;;2.57;;
19384;SDS011;9828;54.122;17.974;2023-12-20T21:15:11;2.40;;;1.90;;
19384;SDS011;9828;54.122;17.974;2023-12-20T21:20:34;9.03;;;2.60;;
19384;SDS011;9828;54.122;17.974;2023-12-20T21:25:55;11.07;;;3.23;;
19384;SDS011;9828;54.122;17.974;2023-12-20T21:31:17;11.13;;;3.60;;
19384;SDS011;9828;54.122;17.974;2023-12-20T21:36:38;6.07;;;3.80;;
19384;SDS011;9828;54.122;17.974;2023-12-20T21:41:59;8.37;;;4.40;;
19384;SDS011;9828;54.122;17.974;2023-12-20T21:47:21;14.53;;;4.90;;
19384;SDS011;9828;54.122;17.974;2023-12-20T21:52:42;11.03;;;4.80;;
19384;SDS011;9828;54.122;17.974;2023-12-20T21:58:03;17.63;;;5.30;;
19384;SDS011;9828;54.122;17.974;2023-12-20T22:03:25;14.73;;;5.00;;
19384;SDS011;9828;54.122;17.974;2023-12-20T22:08:46;10.30;;;4.20;;
19384;SDS011;9828;54.122;17.974;2023-12-20T22:14:07;14.37;;;4.37;;
19384;SDS011;9828;54.122;17.974;2023-12-20T22:19:29;14.17;;;5.23;;
19384;SDS011;9828;54.122;17.974;2023-12-20T22:24:51;11.57;;;3.90;;
19384;SDS011;9828;54.122;17.974;2023-12-20T22:30:11;11.13;;;3.53;;
19384;SDS011;9828;54.122;17.974;2023-12-20T22:35:34;13.70;;;4.40;;
19384;SDS011;9828;54.122;17.974;2023-12-20T22:40:55;18.80;;;5.57;;
19384;SDS011;9828;54.122;17.974;2023-12-20T22:46:17;17.53;;;6.27;;
19384;SDS011;9828;54.122;17.974;2023-12-20T22:51:38;13.10;;;4.90;;
19384;SDS011;9828;54.122;17.974;2023-12-20T22:56:59;16.43;;;4.70;;
19384;SDS011;9828;54.122;17.974;2023-12-20T23:02:20;13.67;;;3.83;;
19384;SDS011;9828;54.122;17.974;2023-12-20T23:07:42;15.97;;;4.17;;
19384;SDS011;9828;54.122;17.974;2023-12-20T23:13:03;12.23;;;3.83;;
19384;SDS011;9828;54.122;17.974;2023-12-20T23:18:26;20.40;;;3.60;;
19384;SDS011;9828;54.122;17.974;2023-12-20T23:23:47;12.60;;;3.47;;
19384;SDS011;9828;54.122;17.974;2023-12-20T23:29:08;8.90;;;3.47;;
19384;SDS011;9828;54.122;17.974;2023-12-20T23:34:29;13.50;;;4.10;;
19384;SDS011;9828;54.122;17.974;2023-12-20T23:39:50;7.77;;;3.40;;
19384;SDS011;9828;54.122;17.974;2023-12-20T23:45:12;13.13;;;3.70;;
19384;SDS011;9828;54.122;17.974;2023-12-20T23:50:33;8.13;;;3.87;;
19384;SDS011;9828;54.122;17.974;2023-12-20T23:55:54;9.40;;;3.63;;
